sensor_id;sensor_type;location;lat;lon;timestamp;temperature;humidity
23691;DHT22;43867;50.836;4.364;2022-08-02T00:01:25;19.70;99.90
23691;DHT22;43867;50.836;4.364;2022-08-02T00:03:57;19.60;99.90
23691;DHT22;43867;50.836;4.364;2022-08-02T00:06:22;19.70;99.90
23691;DHT22;43867;50.836;4.364;2022-08-02T00:08:48;19.60;99.90
23691;DHT22;43867;50.836;4.364;2022-08-02T00:11:13;19.60;99.90
23691;DHT22;43867;50.836;4.364;2022-08-02T00:13:39;19.60;99.90
23691;DHT22;43867;50.836;4.364;2022-08-02T00:16:04;19.70;99.90
23691;DHT22;43867;50.836;4.364;2022-08-02T00:18:30;19.70;99.90
23691;DHT22;43867;50.836;4.364;2022-08-02T00:20:55;19.70;99.90
23691;DHT22;43867;50.836;4.364;2022-08-02T00:23:21;19.70;99.90
23691;DHT22;43867;50.836;4.364;2022-08-02T00:25:46;19.60;99.90
23691;DHT22;43867;50.836;4.364;2022-08-02T00:28:12;19.60;99.90
23691;DHT22;43867;50.836;4.364;2022-08-02T00:30:37;19.50;99.90
23691;DHT22;43867;50.836;4.364;2022-08-02T00:33:08;19.50;99.90
23691;DHT22;43867;50.836;4.364;2022-08-02T00:35:36;19.50;99.90
23691;DHT22;43867;50.836;4.364;2022-08-02T00:38:04;19.50;99.90
23691;DHT22;43867;50.836;4.364;2022-08-02T00:40:34;19.50;99.90
23691;DHT22;43867;50.836;4.364;2022-08-02T00:43:10;19.60;99.90
23691;DHT22;43867;50.836;4.364;2022-08-02T00:45:36;19.70;99.90
23691;DHT22;43867;50.836;4.364;2022-08-02T00:48:02;19.60;99.90
23691;DHT22;43867;50.836;4.364;2022-08-02T00:50:29;19.60;99.90
23691;DHT22;43867;50.836;4.364;2022-08-02T00:52:55;19.50;99.90
23691;DHT22;43867;50.836;4.364;2022-08-02T00:55:20;19.50;99.90
23691;DHT22;43867;50.836;4.364;2022-08-02T00:57:46;19.50;99.90
23691;DHT22;43867;50.836;4.364;2022-08-02T01:00:12;19.50;99.90
23691;DHT22;43867;50.836;4.364;2022-08-02T01:02:37;19.40;99.90
23691;DHT22;43867;50.836;4.364;2022-08-02T01:05:03;19.50;99.90
23691;DHT22;43867;50.836;4.364;2022-08-02T01:07:28;19.50;99.90
23691;DHT22;43867;50.836;4.364;2022-08-02T01:09:54;19.40;99.90
23691;DHT22;43867;50.836;4.364;2022-08-02T01:12:19;19.50;99.90
23691;DHT22;43867;50.836;4.364;2022-08-02T01:14:47;19.40;99.90
23691;DHT22;43867;50.836;4.364;2022-08-02T01:17:28;19.40;99.90
23691;DHT22;43867;50.836;4.364;2022-08-02T01:20:03;19.40;99.90
23691;DHT22;43867;50.836;4.364;2022-08-02T01:22:48;19.40;99.90
23691;DHT22;43867;50.836;4.364;2022-08-02T01:30:42;19.50;99.90
23691;DHT22;43867;50.836;4.364;2022-08-02T01:33:08;19.50;99.90
23691;DHT22;43867;50.836;4.364;2022-08-02T01:35:37;19.50;99.90
23691;DHT22;43867;50.836;4.364;2022-08-02T01:38:08;19.50;99.90
23691;DHT22;43867;50.836;4.364;2022-08-02T01:40:36;19.50;99.90
23691;DHT22;43867;50.836;4.364;2022-08-02T01:43:03;19.50;99.90
23691;DHT22;43867;50.836;4.364;2022-08-02T01:45:29;19.60;99.90
23691;DHT22;43867;50.836;4.364;2022-08-02T01:47:57;19.70;99.90
23691;DHT22;43867;50.836;4.364;2022-08-02T01:50:27;19.80;99.90
23691;DHT22;43867;50.836;4.364;2022-08-02T01:52:54;19.80;99.90
23691;DHT22;43867;50.836;4.364;2022-08-02T01:55:22;19.90;99.90
23691;DHT22;43867;50.836;4.364;2022-08-02T01:57:52;19.90;99.90
23691;DHT22;43867;50.836;4.364;2022-08-02T02:00:20;19.90;99.90
23691;DHT22;43867;50.836;4.364;2022-08-02T02:02:47;19.90;99.90
23691;DHT22;43867;50.836;4.364;2022-08-02T02:05:14;19.90;99.90
23691;DHT22;43867;50.836;4.364;2022-08-02T02:07:41;19.90;99.90
23691;DHT22;43867;50.836;4.364;2022-08-02T02:10:08;19.90;99.90
23691;DHT22;43867;50.836;4.364;2022-08-02T02:12:35;19.90;99.90
23691;DHT22;43867;50.836;4.364;2022-08-02T02:15:02;20.00;99.90
23691;DHT22;43867;50.836;4.364;2022-08-02T02:17:28;19.90;99.90
23691;DHT22;43867;50.836;4.364;2022-08-02T02:19:56;19.90;99.90
23691;DHT22;43867;50.836;4.364;2022-08-02T02:22:22;19.80;99.90
23691;DHT22;43867;50.836;4.364;2022-08-02T02:24:48;19.80;99.90
23691;DHT22;43867;50.836;4.364;2022-08-02T02:27:14;19.80;99.90
23691;DHT22;43867;50.836;4.364;2022-08-02T02:29:42;19.70;99.90
23691;DHT22;43867;50.836;4.364;2022-08-02T02:32:08;19.80;99.90
23691;DHT22;43867;50.836;4.364;2022-08-02T02:34:36;19.70;99.90
23691;DHT22;43867;50.836;4.364;2022-08-02T02:39:42;19.60;99.90
23691;DHT22;43867;50.836;4.364;2022-08-02T02:42:14;19.60;99.90
23691;DHT22;43867;50.836;4.364;2022-08-02T02:44:43;19.70;99.90
23691;DHT22;43867;50.836;4.364;2022-08-02T02:47:13;19.60;99.90
23691;DHT22;43867;50.836;4.364;2022-08-02T02:49:39;19.60;99.90
23691;DHT22;43867;50.836;4.364;2022-08-02T02:52:07;19.50;99.90
23691;DHT22;43867;50.836;4.364;2022-08-02T02:54:33;19.70;99.90
23691;DHT22;43867;50.836;4.364;2022-08-02T02:56:59;19.60;99.90
23691;DHT22;43867;50.836;4.364;2022-08-02T02:59:25;19.50;99.90
23691;DHT22;43867;50.836;4.364;2022-08-02T03:01:50;19.60;99.90
23691;DHT22;43867;50.836;4.364;2022-08-02T03:04:17;19.50;99.90
23691;DHT22;43867;50.836;4.364;2022-08-02T03:06:43;19.50;99.90
23691;DHT22;43867;50.836;4.364;2022-08-02T03:09:11;19.40;99.90
23691;DHT22;43867;50.836;4.364;2022-08-02T03:11:49;19.50;99.90
23691;DHT22;43867;50.836;4.364;2022-08-02T03:14:30;19.40;99.90
23691;DHT22;43867;50.836;4.364;2022-08-02T03:17:04;19.40;99.90
23691;DHT22;43867;50.836;4.364;2022-08-02T03:19:30;19.40;99.90
23691;DHT22;43867;50.836;4.364;2022-08-02T03:21:55;19.50;99.90
23691;DHT22;43867;50.836;4.364;2022-08-02T03:24:22;19.50;99.90
23691;DHT22;43867;50.836;4.364;2022-08-02T03:26:47;19.50;99.90
23691;DHT22;43867;50.836;4.364;2022-08-02T03:29:13;19.50;99.90
23691;DHT22;43867;50.836;4.364;2022-08-02T03:31:39;19.40;99.90
23691;DHT22;43867;50.836;4.364;2022-08-02T03:34:05;19.30;99.90
23691;DHT22;43867;50.836;4.364;2022-08-02T03:36:31;19.30;99.90
23691;DHT22;43867;50.836;4.364;2022-08-02T03:38:57;19.30;99.90
23691;DHT22;43867;50.836;4.364;2022-08-02T03:41:24;19.30;99.90
23691;DHT22;43867;50.836;4.364;2022-08-02T03:43:50;19.40;99.90
23691;DHT22;43867;50.836;4.364;2022-08-02T03:46:17;19.50;99.90
23691;DHT22;43867;50.836;4.364;2022-08-02T03:48:43;19.40;99.90
23691;DHT22;43867;50.836;4.364;2022-08-02T03:51:09;19.40;99.90
23691;DHT22;43867;50.836;4.364;2022-08-02T03:53:35;19.20;99.90
23691;DHT22;43867;50.836;4.364;2022-08-02T03:56:01;19.20;99.90
23691;DHT22;43867;50.836;4.364;2022-08-02T03:58:28;19.20;99.90
23691;DHT22;43867;50.836;4.364;2022-08-02T04:00:54;19.20;99.90
23691;DHT22;43867;50.836;4.364;2022-08-02T04:03:20;19.10;99.90
23691;DHT22;43867;50.836;4.364;2022-08-02T04:05:46;19.10;99.90
23691;DHT22;43867;50.836;4.364;2022-08-02T04:08:11;19.20;99.90
23691;DHT22;43867;50.836;4.364;2022-08-02T04:10:37;19.20;99.90
23691;DHT22;43867;50.836;4.364;2022-08-02T04:13:21;19.20;99.90
23691;DHT22;43867;50.836;4.364;2022-08-02T04:15:55;19.20;99.90
23691;DHT22;43867;50.836;4.364;2022-08-02T04:18:21;19.10;99.90
23691;DHT22;43867;50.836;4.364;2022-08-02T04:20:50;19.20;99.90
23691;DHT22;43867;50.836;4.364;2022-08-02T04:23:16;19.30;99.90
23691;DHT22;43867;50.836;4.364;2022-08-02T04:25:42;19.20;99.90
23691;DHT22;43867;50.836;4.364;2022-08-02T04:28:08;19.20;99.90
23691;DHT22;43867;50.836;4.364;2022-08-02T04:30:35;19.10;99.90
23691;DHT22;43867;50.836;4.364;2022-08-02T04:33:00;19.10;99.90
23691;DHT22;43867;50.836;4.364;2022-08-02T04:35:26;19.00;99.90
23691;DHT22;43867;50.836;4.364;2022-08-02T04:37:52;18.90;99.90
23691;DHT22;43867;50.836;4.364;2022-08-02T04:40:17;18.90;99.90
23691;DHT22;43867;50.836;4.364;2022-08-02T04:42:43;18.80;99.90
23691;DHT22;43867;50.836;4.364;2022-08-02T04:45:09;18.80;99.90
23691;DHT22;43867;50.836;4.364;2022-08-02T04:47:37;18.80;99.90
23691;DHT22;43867;50.836;4.364;2022-08-02T04:50:06;18.90;99.90
23691;DHT22;43867;50.836;4.364;2022-08-02T04:52:34;18.90;99.90
23691;DHT22;43867;50.836;4.364;2022-08-02T04:55:00;19.00;99.90
23691;DHT22;43867;50.836;4.364;2022-08-02T04:57:25;19.00;99.90
23691;DHT22;43867;50.836;4.364;2022-08-02T05:00:11;19.00;99.90
23691;DHT22;43867;50.836;4.364;2022-08-02T05:02:37;19.00;99.90
23691;DHT22;43867;50.836;4.364;2022-08-02T05:05:02;19.10;99.90
23691;DHT22;43867;50.836;4.364;2022-08-02T05:07:28;19.20;99.90
23691;DHT22;43867;50.836;4.364;2022-08-02T05:09:57;19.10;99.90
23691;DHT22;43867;50.836;4.364;2022-08-02T05:12:25;19.20;99.90
23691;DHT22;43867;50.836;4.364;2022-08-02T05:14:51;19.20;99.90
23691;DHT22;43867;50.836;4.364;2022-08-02T05:17:19;19.20;99.90
23691;DHT22;43867;50.836;4.364;2022-08-02T05:19:45;19.30;99.90
23691;DHT22;43867;50.836;4.364;2022-08-02T05:22:10;19.20;99.90
23691;DHT22;43867;50.836;4.364;2022-08-02T05:24:36;19.10;99.90
23691;DHT22;43867;50.836;4.364;2022-08-02T05:27:02;19.00;99.90
23691;DHT22;43867;50.836;4.364;2022-08-02T05:29:28;19.00;99.90
23691;DHT22;43867;50.836;4.364;2022-08-02T05:31:53;19.00;99.90
23691;DHT22;43867;50.836;4.364;2022-08-02T05:34:19;19.10;99.90
23691;DHT22;43867;50.836;4.364;2022-08-02T05:36:44;19.10;99.90
23691;DHT22;43867;50.836;4.364;2022-08-02T05:39:10;19.20;99.90
23691;DHT22;43867;50.836;4.364;2022-08-02T05:41:36;19.20;99.90
23691;DHT22;43867;50.836;4.364;2022-08-02T05:44:02;19.10;99.90
23691;DHT22;43867;50.836;4.364;2022-08-02T05:46:32;19.10;99.90
23691;DHT22;43867;50.836;4.364;2022-08-02T05:49:01;19.10;99.90
23691;DHT22;43867;50.836;4.364;2022-08-02T05:51:38;19.10;99.90
23691;DHT22;43867;50.836;4.364;2022-08-02T05:54:26;19.30;99.90
23691;DHT22;43867;50.836;4.364;2022-08-02T05:57:08;19.30;99.90
23691;DHT22;43867;50.836;4.364;2022-08-02T06:02:09;19.50;99.90
23691;DHT22;43867;50.836;4.364;2022-08-02T06:04:53;19.70;99.90
23691;DHT22;43867;50.836;4.364;2022-08-02T06:07:23;19.90;99.90
23691;DHT22;43867;50.836;4.364;2022-08-02T06:09:49;20.10;99.90
23691;DHT22;43867;50.836;4.364;2022-08-02T06:12:15;20.40;99.90
23691;DHT22;43867;50.836;4.364;2022-08-02T06:14:44;20.70;99.90
23691;DHT22;43867;50.836;4.364;2022-08-02T06:17:10;20.90;99.90
23691;DHT22;43867;50.836;4.364;2022-08-02T06:19:37;20.80;99.90
23691;DHT22;43867;50.836;4.364;2022-08-02T06:22:05;20.90;99.90
23691;DHT22;43867;50.836;4.364;2022-08-02T06:24:44;20.90;99.90
23691;DHT22;43867;50.836;4.364;2022-08-02T06:27:12;21.10;99.90
23691;DHT22;43867;50.836;4.364;2022-08-02T06:29:47;21.40;99.90
23691;DHT22;43867;50.836;4.364;2022-08-02T06:32:13;21.60;99.90
23691;DHT22;43867;50.836;4.364;2022-08-02T06:34:41;21.90;99.90
23691;DHT22;43867;50.836;4.364;2022-08-02T06:37:13;22.10;99.90
23691;DHT22;43867;50.836;4.364;2022-08-02T06:39:43;22.30;99.90
23691;DHT22;43867;50.836;4.364;2022-08-02T06:42:12;22.80;99.90
23691;DHT22;43867;50.836;4.364;2022-08-02T06:44:39;22.70;99.90
23691;DHT22;43867;50.836;4.364;2022-08-02T06:47:05;22.70;99.90
23691;DHT22;43867;50.836;4.364;2022-08-02T06:49:30;23.30;99.90
23691;DHT22;43867;50.836;4.364;2022-08-02T06:51:56;23.60;99.90
23691;DHT22;43867;50.836;4.364;2022-08-02T06:54:22;23.50;99.90
23691;DHT22;43867;50.836;4.364;2022-08-02T06:56:47;23.50;99.90
23691;DHT22;43867;50.836;4.364;2022-08-02T06:59:13;23.50;99.90
23691;DHT22;43867;50.836;4.364;2022-08-02T07:01:38;23.40;99.90
23691;DHT22;43867;50.836;4.364;2022-08-02T07:04:04;23.30;99.90
23691;DHT22;43867;50.836;4.364;2022-08-02T07:06:30;23.00;99.90
23691;DHT22;43867;50.836;4.364;2022-08-02T07:08:58;22.80;99.90
23691;DHT22;43867;50.836;4.364;2022-08-02T07:11:29;22.90;99.90
23691;DHT22;43867;50.836;4.364;2022-08-02T07:13:57;23.50;99.90
23691;DHT22;43867;50.836;4.364;2022-08-02T07:16:23;23.40;99.90
23691;DHT22;43867;50.836;4.364;2022-08-02T07:18:48;23.60;99.90
23691;DHT22;43867;50.836;4.364;2022-08-02T07:21:14;23.80;99.90
23691;DHT22;43867;50.836;4.364;2022-08-02T07:23:39;24.10;99.90
23691;DHT22;43867;50.836;4.364;2022-08-02T07:26:05;24.70;99.90
23691;DHT22;43867;50.836;4.364;2022-08-02T07:28:30;25.20;98.50
23691;DHT22;43867;50.836;4.364;2022-08-02T07:30:56;25.60;96.30
23691;DHT22;43867;50.836;4.364;2022-08-02T07:33:21;25.40;95.10
23691;DHT22;43867;50.836;4.364;2022-08-02T07:38:24;24.40;97.20
23691;DHT22;43867;50.836;4.364;2022-08-02T07:43:35;24.40;97.60
23691;DHT22;43867;50.836;4.364;2022-08-02T07:46:00;24.50;97.20
23691;DHT22;43867;50.836;4.364;2022-08-02T07:48:26;24.60;97.20
23691;DHT22;43867;50.836;4.364;2022-08-02T07:50:51;24.90;97.00
23691;DHT22;43867;50.836;4.364;2022-08-02T07:53:17;25.50;95.70
23691;DHT22;43867;50.836;4.364;2022-08-02T07:55:43;25.50;95.50
23691;DHT22;43867;50.836;4.364;2022-08-02T07:58:08;25.70;93.90
23691;DHT22;43867;50.836;4.364;2022-08-02T08:00:34;25.50;94.10
23691;DHT22;43867;50.836;4.364;2022-08-02T08:02:59;25.20;94.40
23691;DHT22;43867;50.836;4.364;2022-08-02T08:05:25;25.80;94.30
23691;DHT22;43867;50.836;4.364;2022-08-02T08:07:51;26.00;92.40
23691;DHT22;43867;50.836;4.364;2022-08-02T08:10:16;25.70;93.70
23691;DHT22;43867;50.836;4.364;2022-08-02T08:12:43;26.00;93.20
23691;DHT22;43867;50.836;4.364;2022-08-02T08:15:11;26.50;91.30
23691;DHT22;43867;50.836;4.364;2022-08-02T08:17:37;26.20;91.20
23691;DHT22;43867;50.836;4.364;2022-08-02T08:20:03;26.70;90.50
23691;DHT22;43867;50.836;4.364;2022-08-02T08:22:29;26.40;88.20
23691;DHT22;43867;50.836;4.364;2022-08-02T08:25:16;26.40;87.70
23691;DHT22;43867;50.836;4.364;2022-08-02T08:27:48;26.50;86.80
23691;DHT22;43867;50.836;4.364;2022-08-02T08:30:15;26.30;87.50
23691;DHT22;43867;50.836;4.364;2022-08-02T08:32:41;26.10;89.20
23691;DHT22;43867;50.836;4.364;2022-08-02T08:35:07;26.10;89.40
23691;DHT22;43867;50.836;4.364;2022-08-02T08:37:36;26.20;90.10
23691;DHT22;43867;50.836;4.364;2022-08-02T08:40:06;26.30;90.00
23691;DHT22;43867;50.836;4.364;2022-08-02T08:42:32;26.50;88.90
23691;DHT22;43867;50.836;4.364;2022-08-02T08:44:58;27.10;88.30
23691;DHT22;43867;50.836;4.364;2022-08-02T08:47:34;27.40;83.30
23691;DHT22;43867;50.836;4.364;2022-08-02T08:50:16;27.70;80.70
23691;DHT22;43867;50.836;4.364;2022-08-02T08:53:02;27.70;78.80
23691;DHT22;43867;50.836;4.364;2022-08-02T08:55:45;27.20;80.80
23691;DHT22;43867;50.836;4.364;2022-08-02T08:58:12;27.00;80.80
23691;DHT22;43867;50.836;4.364;2022-08-02T09:03:32;27.40;81.10
23691;DHT22;43867;50.836;4.364;2022-08-02T09:05:58;27.60;78.40
23691;DHT22;43867;50.836;4.364;2022-08-02T09:08:24;27.80;74.50
23691;DHT22;43867;50.836;4.364;2022-08-02T09:10:50;27.60;75.00
23691;DHT22;43867;50.836;4.364;2022-08-02T09:13:16;27.60;75.20
23691;DHT22;43867;50.836;4.364;2022-08-02T09:15:43;27.60;74.80
23691;DHT22;43867;50.836;4.364;2022-08-02T09:18:12;27.60;75.30
23691;DHT22;43867;50.836;4.364;2022-08-02T09:20:52;27.80;75.80
23691;DHT22;43867;50.836;4.364;2022-08-02T09:23:18;28.00;74.50
23691;DHT22;43867;50.836;4.364;2022-08-02T09:25:57;28.60;72.90
23691;DHT22;43867;50.836;4.364;2022-08-02T09:28:27;28.90;68.90
23691;DHT22;43867;50.836;4.364;2022-08-02T09:30:57;29.30;67.10
23691;DHT22;43867;50.836;4.364;2022-08-02T09:33:27;29.30;65.80
23691;DHT22;43867;50.836;4.364;2022-08-02T09:36:05;29.00;65.80
23691;DHT22;43867;50.836;4.364;2022-08-02T09:38:32;28.20;67.90
23691;DHT22;43867;50.836;4.364;2022-08-02T09:40:58;28.40;70.10
23691;DHT22;43867;50.836;4.364;2022-08-02T09:46:18;27.40;71.60
23691;DHT22;43867;50.836;4.364;2022-08-02T09:48:54;27.70;72.50
23691;DHT22;43867;50.836;4.364;2022-08-02T09:51:21;28.20;71.90
23691;DHT22;43867;50.836;4.364;2022-08-02T09:53:48;28.70;68.70
23691;DHT22;43867;50.836;4.364;2022-08-02T09:56:14;29.00;67.40
23691;DHT22;43867;50.836;4.364;2022-08-02T09:58:40;28.50;67.20
23691;DHT22;43867;50.836;4.364;2022-08-02T10:01:06;28.10;68.00
23691;DHT22;43867;50.836;4.364;2022-08-02T10:03:34;28.20;70.00
23691;DHT22;43867;50.836;4.364;2022-08-02T10:05:59;28.40;68.80
23691;DHT22;43867;50.836;4.364;2022-08-02T10:08:26;28.20;70.60
23691;DHT22;43867;50.836;4.364;2022-08-02T10:10:58;28.50;68.80
23691;DHT22;43867;50.836;4.364;2022-08-02T10:13:27;28.60;67.90
23691;DHT22;43867;50.836;4.364;2022-08-02T10:15:54;28.90;68.30
23691;DHT22;43867;50.836;4.364;2022-08-02T10:18:20;29.00;65.90
23691;DHT22;43867;50.836;4.364;2022-08-02T10:20:48;29.20;64.80
23691;DHT22;43867;50.836;4.364;2022-08-02T10:23:14;29.60;63.80
23691;DHT22;43867;50.836;4.364;2022-08-02T10:25:40;29.60;59.60
23691;DHT22;43867;50.836;4.364;2022-08-02T10:28:06;29.20;59.70
23691;DHT22;43867;50.836;4.364;2022-08-02T10:30:35;29.50;58.90
23691;DHT22;43867;50.836;4.364;2022-08-02T10:33:02;29.30;59.10
23691;DHT22;43867;50.836;4.364;2022-08-02T10:35:31;29.20;59.40
23691;DHT22;43867;50.836;4.364;2022-08-02T10:37:59;29.30;57.30
23691;DHT22;43867;50.836;4.364;2022-08-02T10:41:02;29.10;56.80
23691;DHT22;43867;50.836;4.364;2022-08-02T10:54:16;28.80;56.80
23691;DHT22;43867;50.836;4.364;2022-08-02T10:56:46;28.50;56.20
23691;DHT22;43867;50.836;4.364;2022-08-02T11:01:50;28.30;56.70
23691;DHT22;43867;50.836;4.364;2022-08-02T11:04:16;28.20;57.00
23691;DHT22;43867;50.836;4.364;2022-08-02T11:09:27;28.20;58.00
23691;DHT22;43867;50.836;4.364;2022-08-02T11:12:00;28.60;57.60
23691;DHT22;43867;50.836;4.364;2022-08-02T11:14:26;28.60;55.70
23691;DHT22;43867;50.836;4.364;2022-08-02T11:19:27;28.40;55.80
23691;DHT22;43867;50.836;4.364;2022-08-02T11:22:06;28.50;55.30
23691;DHT22;43867;50.836;4.364;2022-08-02T11:24:32;28.70;54.10
23691;DHT22;43867;50.836;4.364;2022-08-02T11:26:59;28.80;54.00
23691;DHT22;43867;50.836;4.364;2022-08-02T11:29:38;28.60;52.20
23691;DHT22;43867;50.836;4.364;2022-08-02T11:32:07;28.80;52.60
23691;DHT22;43867;50.836;4.364;2022-08-02T11:34:33;28.80;52.80
23691;DHT22;43867;50.836;4.364;2022-08-02T11:36:58;28.90;53.20
23691;DHT22;43867;50.836;4.364;2022-08-02T11:39:24;28.90;53.40
23691;DHT22;43867;50.836;4.364;2022-08-02T11:41:57;28.80;53.90
23691;DHT22;43867;50.836;4.364;2022-08-02T11:44:26;28.60;54.00
23691;DHT22;43867;50.836;4.364;2022-08-02T11:46:57;28.40;53.80
23691;DHT22;43867;50.836;4.364;2022-08-02T11:49:23;28.40;53.90
23691;DHT22;43867;50.836;4.364;2022-08-02T11:52:02;28.60;54.10
23691;DHT22;43867;50.836;4.364;2022-08-02T11:54:31;28.70;52.60
23691;DHT22;43867;50.836;4.364;2022-08-02T11:57:08;28.70;53.30
23691;DHT22;43867;50.836;4.364;2022-08-02T11:59:36;28.90;52.60
23691;DHT22;43867;50.836;4.364;2022-08-02T12:02:03;28.80;52.80
23691;DHT22;43867;50.836;4.364;2022-08-02T12:04:29;28.80;53.30
23691;DHT22;43867;50.836;4.364;2022-08-02T12:06:55;28.90;53.70
23691;DHT22;43867;50.836;4.364;2022-08-02T12:09:21;28.90;53.20
23691;DHT22;43867;50.836;4.364;2022-08-02T12:11:59;28.80;52.70
23691;DHT22;43867;50.836;4.364;2022-08-02T12:14:25;28.60;52.30
23691;DHT22;43867;50.836;4.364;2022-08-02T12:16:51;28.70;52.90
23691;DHT22;43867;50.836;4.364;2022-08-02T12:19:39;28.60;52.80
23691;DHT22;43867;50.836;4.364;2022-08-02T12:24:32;28.60;53.40
23691;DHT22;43867;50.836;4.364;2022-08-02T12:27:01;28.80;52.40
23691;DHT22;43867;50.836;4.364;2022-08-02T12:29:28;28.60;52.50
23691;DHT22;43867;50.836;4.364;2022-08-02T12:31:56;28.60;53.00
23691;DHT22;43867;50.836;4.364;2022-08-02T12:34:23;28.50;53.40
23691;DHT22;43867;50.836;4.364;2022-08-02T12:37:03;28.40;53.90
23691;DHT22;43867;50.836;4.364;2022-08-02T12:42:07;28.90;53.10
23691;DHT22;43867;50.836;4.364;2022-08-02T12:44:34;29.00;54.10
23691;DHT22;43867;50.836;4.364;2022-08-02T12:47:05;28.90;54.40
23691;DHT22;43867;50.836;4.364;2022-08-02T12:49:30;28.90;54.30
23691;DHT22;43867;50.836;4.364;2022-08-02T12:51:59;29.00;54.30
23691;DHT22;43867;50.836;4.364;2022-08-02T12:54:44;29.10;53.90
23691;DHT22;43867;50.836;4.364;2022-08-02T12:59:52;29.20;53.60
23691;DHT22;43867;50.836;4.364;2022-08-02T13:02:18;29.10;53.60
23691;DHT22;43867;50.836;4.364;2022-08-02T13:04:45;28.90;53.90
23691;DHT22;43867;50.836;4.364;2022-08-02T13:07:10;29.00;54.50
23691;DHT22;43867;50.836;4.364;2022-08-02T13:09:40;29.10;54.40
23691;DHT22;43867;50.836;4.364;2022-08-02T13:12:06;29.00;54.20
23691;DHT22;43867;50.836;4.364;2022-08-02T13:14:33;28.70;54.90
23691;DHT22;43867;50.836;4.364;2022-08-02T13:16:59;28.50;55.40
23691;DHT22;43867;50.836;4.364;2022-08-02T13:19:25;28.70;55.70
23691;DHT22;43867;50.836;4.364;2022-08-02T13:21:50;28.80;55.80
23691;DHT22;43867;50.836;4.364;2022-08-02T13:24:16;29.00;55.50
23691;DHT22;43867;50.836;4.364;2022-08-02T13:26:44;29.00;55.70
23691;DHT22;43867;50.836;4.364;2022-08-02T13:29:10;29.00;55.50
23691;DHT22;43867;50.836;4.364;2022-08-02T13:31:36;28.90;55.80
23691;DHT22;43867;50.836;4.364;2022-08-02T13:34:11;28.90;55.70
23691;DHT22;43867;50.836;4.364;2022-08-02T13:36:37;29.00;55.70
23691;DHT22;43867;50.836;4.364;2022-08-02T13:39:03;29.10;55.70
23691;DHT22;43867;50.836;4.364;2022-08-02T13:41:30;29.10;55.70
23691;DHT22;43867;50.836;4.364;2022-08-02T13:43:56;29.20;55.80
23691;DHT22;43867;50.836;4.364;2022-08-02T13:46:21;29.20;55.40
23691;DHT22;43867;50.836;4.364;2022-08-02T13:48:47;29.20;55.10
23691;DHT22;43867;50.836;4.364;2022-08-02T13:51:12;29.20;55.00
23691;DHT22;43867;50.836;4.364;2022-08-02T13:53:38;29.10;54.90
23691;DHT22;43867;50.836;4.364;2022-08-02T13:56:04;28.90;55.50
23691;DHT22;43867;50.836;4.364;2022-08-02T13:58:30;28.90;56.10
23691;DHT22;43867;50.836;4.364;2022-08-02T14:00:55;28.90;56.10
23691;DHT22;43867;50.836;4.364;2022-08-02T14:03:21;29.00;55.80
23691;DHT22;43867;50.836;4.364;2022-08-02T14:05:46;29.00;55.80
23691;DHT22;43867;50.836;4.364;2022-08-02T14:08:19;29.10;56.00
23691;DHT22;43867;50.836;4.364;2022-08-02T14:10:46;29.30;55.70
23691;DHT22;43867;50.836;4.364;2022-08-02T14:13:13;29.40;56.00
23691;DHT22;43867;50.836;4.364;2022-08-02T14:15:39;29.60;55.70
23691;DHT22;43867;50.836;4.364;2022-08-02T14:18:04;29.60;55.40
23691;DHT22;43867;50.836;4.364;2022-08-02T14:20:30;29.50;55.60
23691;DHT22;43867;50.836;4.364;2022-08-02T14:22:55;29.50;55.80
23691;DHT22;43867;50.836;4.364;2022-08-02T14:25:21;29.60;55.70
23691;DHT22;43867;50.836;4.364;2022-08-02T14:27:47;29.70;55.80
23691;DHT22;43867;50.836;4.364;2022-08-02T14:30:12;29.70;55.60
23691;DHT22;43867;50.836;4.364;2022-08-02T14:32:38;29.40;56.20
23691;DHT22;43867;50.836;4.364;2022-08-02T14:35:04;29.40;56.70
23691;DHT22;43867;50.836;4.364;2022-08-02T14:37:29;29.40;56.60
23691;DHT22;43867;50.836;4.364;2022-08-02T14:39:55;29.50;56.40
23691;DHT22;43867;50.836;4.364;2022-08-02T14:42:23;29.60;56.40
23691;DHT22;43867;50.836;4.364;2022-08-02T14:44:48;29.90;56.00
23691;DHT22;43867;50.836;4.364;2022-08-02T14:47:14;29.80;56.20
23691;DHT22;43867;50.836;4.364;2022-08-02T14:49:40;29.80;56.20
23691;DHT22;43867;50.836;4.364;2022-08-02T14:52:06;29.70;56.40
23691;DHT22;43867;50.836;4.364;2022-08-02T14:54:31;29.70;56.20
23691;DHT22;43867;50.836;4.364;2022-08-02T14:56:59;29.70;56.40
23691;DHT22;43867;50.836;4.364;2022-08-02T14:59:25;29.80;56.40
23691;DHT22;43867;50.836;4.364;2022-08-02T15:01:50;29.70;56.40
23691;DHT22;43867;50.836;4.364;2022-08-02T15:04:16;29.70;56.40
23691;DHT22;43867;50.836;4.364;2022-08-02T15:06:41;29.70;56.50
23691;DHT22;43867;50.836;4.364;2022-08-02T15:09:07;29.70;56.40
23691;DHT22;43867;50.836;4.364;2022-08-02T15:11:33;29.70;56.30
23691;DHT22;43867;50.836;4.364;2022-08-02T15:13:58;29.70;56.40
23691;DHT22;43867;50.836;4.364;2022-08-02T15:16:24;29.60;56.40
23691;DHT22;43867;50.836;4.364;2022-08-02T15:18:50;29.60;56.60
23691;DHT22;43867;50.836;4.364;2022-08-02T15:21:15;29.60;56.50
23691;DHT22;43867;50.836;4.364;2022-08-02T15:23:41;29.60;56.70
23691;DHT22;43867;50.836;4.364;2022-08-02T15:26:06;29.80;56.70
23691;DHT22;43867;50.836;4.364;2022-08-02T15:28:32;29.80;56.20
23691;DHT22;43867;50.836;4.364;2022-08-02T15:30:58;29.90;56.10
23691;DHT22;43867;50.836;4.364;2022-08-02T15:33:23;30.00;56.00
23691;DHT22;43867;50.836;4.364;2022-08-02T15:35:50;29.90;56.20
23691;DHT22;43867;50.836;4.364;2022-08-02T15:38:15;29.90;56.10
23691;DHT22;43867;50.836;4.364;2022-08-02T15:40:41;29.80;56.30
23691;DHT22;43867;50.836;4.364;2022-08-02T15:43:07;29.70;56.60
23691;DHT22;43867;50.836;4.364;2022-08-02T15:45:33;29.70;56.40
23691;DHT22;43867;50.836;4.364;2022-08-02T15:47:59;29.70;56.20
23691;DHT22;43867;50.836;4.364;2022-08-02T15:50:25;29.50;56.90
23691;DHT22;43867;50.836;4.364;2022-08-02T15:52:50;29.40;56.90
23691;DHT22;43867;50.836;4.364;2022-08-02T15:55:16;29.30;57.00
23691;DHT22;43867;50.836;4.364;2022-08-02T15:57:42;29.20;57.20
23691;DHT22;43867;50.836;4.364;2022-08-02T16:00:07;29.20;57.60
23691;DHT22;43867;50.836;4.364;2022-08-02T16:02:34;29.10;57.80
23691;DHT22;43867;50.836;4.364;2022-08-02T16:05:01;29.10;57.90
23691;DHT22;43867;50.836;4.364;2022-08-02T16:07:26;29.10;58.10
23691;DHT22;43867;50.836;4.364;2022-08-02T16:09:52;29.20;58.20
23691;DHT22;43867;50.836;4.364;2022-08-02T16:12:23;29.10;58.50
23691;DHT22;43867;50.836;4.364;2022-08-02T16:14:49;29.00;58.60
23691;DHT22;43867;50.836;4.364;2022-08-02T16:17:14;29.00;58.80
23691;DHT22;43867;50.836;4.364;2022-08-02T16:19:40;29.10;58.90
23691;DHT22;43867;50.836;4.364;2022-08-02T16:22:06;29.10;58.80